createdAt,value
2023-02-08T00:01:44.507Z,97766.69
2023-02-08T00:04:10.958Z,97762.88
2023-02-08T00:06:37.414Z,97767.38
2023-02-08T00:09:04.062Z,97742.53
2023-02-08T00:11:30.526Z,97758.38
2023-02-08T00:13:56.966Z,97753.22
2023-02-08T00:16:23.599Z,97771.81
2023-02-08T00:18:50.056Z,97762.47
2023-02-08T00:21:17.994Z,97746.84
2023-02-08T00:23:44.954Z,97761.63
2023-02-08T00:26:12.208Z,97751.31
2023-02-08T00:28:41.001Z,97753.38
2023-02-08T00:31:07.918Z,97755.81
2023-02-08T00:33:34.648Z,97734.53
2023-02-08T00:36:02.376Z,97729.00
2023-02-08T00:38:29.472Z,97732.53
2023-02-08T00:40:55.974Z,97726.03
2023-02-08T00:43:24.064Z,97731.19
2023-02-08T00:45:57.293Z,97738.78
2023-02-08T00:48:25.426Z,97745.53
2023-02-08T00:51:04.473Z,97750.38
2023-02-08T00:53:31.222Z,97727.22
2023-02-08T00:55:57.840Z,97737.66
2023-02-08T00:58:25.163Z,97748.88
2023-02-08T01:00:53.641Z,97734.66
2023-02-08T01:03:21.857Z,97745.91
2023-02-08T01:05:48.674Z,97746.97
2023-02-08T01:08:15.181Z,97741.00
2023-02-08T01:10:42.706Z,97744.75
2023-02-08T01:13:09.828Z,97729.88
2023-02-08T01:15:36.729Z,97734.34
2023-02-08T01:18:03.684Z,97744.34
2023-02-08T01:20:30.319Z,97738.25
2023-02-08T01:22:56.993Z,97744.19
2023-02-08T01:25:23.561Z,97734.56
2023-02-08T01:27:50.029Z,97741.63
2023-02-08T01:30:17.521Z,97738.38
2023-02-08T01:32:44.034Z,97728.09
2023-02-08T01:35:10.504Z,97727.69
2023-02-08T01:37:37.400Z,97727.56
2023-02-08T01:40:04.307Z,97730.44
2023-02-08T01:42:30.850Z,97734.63
2023-02-08T01:45:15.690Z,97743.72
2023-02-08T01:47:45.253Z,97723.00
2023-02-08T01:50:13.411Z,97728.66
2023-02-08T01:52:43.563Z,97720.16
2023-02-08T01:55:20.542Z,97722.72
2023-02-08T01:57:52.335Z,97731.66
2023-02-08T02:00:22.304Z,97735.44
2023-02-08T02:02:55.856Z,97732.47
2023-02-08T02:05:27.883Z,97740.16
2023-02-08T02:07:57.373Z,97732.19
2023-02-08T02:10:33.043Z,97708.75
2023-02-08T02:13:09.308Z,97717.03
2023-02-08T02:15:36.079Z,97732.19
2023-02-08T02:18:05.765Z,97704.00
2023-02-08T02:20:47.667Z,97724.34
2023-02-08T02:23:17.083Z,97723.94
2023-02-08T02:26:05.406Z,97724.47
2023-02-08T02:29:02.856Z,97727.72
2023-02-08T02:31:47.728Z,97718.47
2023-02-08T02:34:26.244Z,97712.25
2023-02-08T02:37:23.834Z,97717.38
2023-02-08T02:40:12.151Z,97721.41
2023-02-08T02:43:15.184Z,97726.94
2023-02-08T02:46:02.906Z,97720.69
2023-02-08T02:48:47.645Z,97720.03
2023-02-08T02:51:44.180Z,97721.69
2023-02-08T02:54:19.553Z,97715.84
2023-02-08T02:56:50.816Z,97716.81
2023-02-08T02:59:18.898Z,97719.78
2023-02-08T03:01:47.311Z,97719.28
2023-02-08T03:04:36.622Z,97722.94
2023-02-08T03:07:26.278Z,97721.16
2023-02-08T03:10:30.272Z,97720.22
2023-02-08T03:13:18.803Z,97718.56
2023-02-08T03:16:06.641Z,97721.59
2023-02-08T03:19:21.550Z,97728.25
2023-02-08T03:21:57.132Z,97728.25
2023-02-08T03:24:42.396Z,97725.66
2023-02-08T03:27:31.969Z,97712.84
2023-02-08T03:30:01.368Z,97714.47
2023-02-08T03:32:51.784Z,97699.59
2023-02-08T03:35:34.575Z,97712.69
2023-02-08T03:38:15.779Z,97711.50
2023-02-08T03:40:45.569Z,97714.75
2023-02-08T03:43:17.977Z,97713.28
2023-02-08T03:45:55.463Z,97699.59
2023-02-08T03:48:25.244Z,97715.69
2023-02-08T03:50:54.928Z,97704.31
2023-02-08T03:53:23.527Z,97715.28
2023-02-08T03:55:55.989Z,97703.09
2023-02-08T03:58:28.258Z,97694.72
2023-02-08T04:00:59.159Z,97709.34
2023-02-08T04:03:31.367Z,97706.25
2023-02-08T04:05:58.244Z,97703.50
2023-02-08T04:08:25.701Z,97693.38
2023-02-08T04:10:52.434Z,97690.91
2023-02-08T04:13:18.873Z,97685.16
2023-02-08T04:15:45.374Z,97702.53
2023-02-08T04:18:11.816Z,97696.69
2023-02-08T04:20:38.499Z,97679.75
2023-02-08T04:23:05.047Z,97679.25
2023-02-08T04:25:31.492Z,97688.44
2023-02-08T04:27:57.996Z,97679.88
2023-02-08T04:30:24.417Z,97676.78
2023-02-08T04:32:50.921Z,97666.38
2023-02-08T04:35:17.446Z,97669.53
2023-02-08T04:37:43.875Z,97689.47
2023-02-08T04:40:11.091Z,97676.34
2023-02-08T04:42:37.533Z,97685.88
2023-02-08T04:45:04.206Z,97685.06
2023-02-08T04:47:30.724Z,97679.13
2023-02-08T04:49:57.137Z,97671.00
2023-02-08T04:52:23.552Z,97674.53
2023-02-08T04:54:49.974Z,97678.72
2023-02-08T04:57:16.520Z,97666.25
2023-02-08T04:59:42.935Z,97670.06
2023-02-08T05:02:09.777Z,97666.38
2023-02-08T05:04:36.231Z,97675.31
2023-02-08T05:07:02.796Z,97662.97
2023-02-08T05:09:29.532Z,97673.53
2023-02-08T05:11:55.996Z,97656.50
2023-02-08T05:14:22.458Z,97660.13
2023-02-08T05:16:48.930Z,97661.06
2023-02-08T05:19:15.385Z,97660.84
2023-02-08T05:21:41.830Z,97651.63
2023-02-08T05:24:12.438Z,97651.88
2023-02-08T05:26:40.230Z,97653.41
2023-02-08T05:29:08.060Z,97667.34
2023-02-08T05:31:34.988Z,97661.25
2023-02-08T05:34:01.722Z,97654.75
2023-02-08T05:36:28.327Z,97675.22
2023-02-08T05:38:54.790Z,97663.72
2023-02-08T05:41:21.276Z,97652.88
2023-02-08T05:43:47.787Z,97658.00
2023-02-08T05:46:14.882Z,97669.78
2023-02-08T05:48:41.579Z,97654.34
2023-02-08T05:51:08.116Z,97671.25
2023-02-08T05:53:34.702Z,97656.50
2023-02-08T05:56:01.166Z,97666.13
2023-02-08T05:58:28.259Z,97655.81
2023-02-08T06:00:54.824Z,97669.28
2023-02-08T06:03:23.728Z,97662.38
2023-02-08T06:05:50.480Z,97664.25
2023-02-08T06:08:17.041Z,97655.19
2023-02-08T06:10:43.579Z,97655.59
2023-02-08T06:13:10.217Z,97672.66
2023-02-08T06:15:36.656Z,97651.94
2023-02-08T06:18:03.375Z,97672.94
2023-02-08T06:20:29.804Z,97650.31
2023-02-08T06:22:56.399Z,97655.47
2023-02-08T06:25:22.844Z,97643.13
2023-02-08T06:27:49.462Z,97648.56
2023-02-08T06:30:16.289Z,97650.06
2023-02-08T06:32:42.755Z,97644.63
2023-02-08T06:35:09.569Z,97657.63
2023-02-08T06:37:36.170Z,97665.09
2023-02-08T06:40:03.697Z,97660.88
2023-02-08T06:42:30.290Z,97674.53
2023-02-08T06:44:57.998Z,97668.88
2023-02-08T06:47:26.196Z,97679.97
2023-02-08T06:49:53.049Z,97676.72
2023-02-08T06:52:20.001Z,97682.13
2023-02-08T06:54:46.596Z,97694.06
2023-02-08T06:57:13.324Z,97698.69
2023-02-08T06:59:41.062Z,97695.72
2023-02-08T07:02:15.904Z,97701.13
2023-02-08T07:04:42.559Z,97690.81
2023-02-08T07:07:12.932Z,97698.66
2023-02-08T07:09:39.743Z,97709.25
2023-02-08T07:12:06.757Z,97700.41
2023-02-08T07:14:35.650Z,97700.97
2023-02-08T07:17:02.637Z,97702.88
2023-02-08T07:19:29.640Z,97702.88
2023-02-08T07:21:56.590Z,97705.16
2023-02-08T07:24:23.861Z,97695.16
2023-02-08T07:26:50.283Z,97693.41
2023-02-08T07:29:16.717Z,97690.16
2023-02-08T07:31:43.225Z,97694.59
2023-02-08T07:34:09.684Z,97703.97
2023-02-08T07:36:36.114Z,97699.88
2023-02-08T07:39:02.856Z,97695.97
2023-02-08T07:41:29.401Z,97701.22
2023-02-08T07:43:55.838Z,97703.28
2023-02-08T07:46:22.518Z,97700.03
2023-02-08T07:48:52.757Z,97685.28
2023-02-08T07:51:19.350Z,97707.19
2023-02-08T07:53:46.072Z,97699.06
2023-02-08T07:56:12.559Z,97681.03
2023-02-08T07:58:39.657Z,97682.50
2023-02-08T08:01:20.993Z,97681.97
2023-02-08T08:03:49.170Z,97682.47
2023-02-08T08:06:15.630Z,97688.53
2023-02-08T08:08:43.203Z,97677.97
2023-02-08T08:11:09.652Z,97677.81
2023-02-08T08:13:36.070Z,97670.06
2023-02-08T08:16:02.559Z,97672.81
2023-02-08T08:18:29.263Z,97684.41
2023-02-08T08:20:55.725Z,97689.97
2023-02-08T08:23:22.424Z,97702.19
2023-02-08T08:25:50.197Z,97675.91
2023-02-08T08:28:16.790Z,97687.00
2023-02-08T08:30:44.787Z,97681.66
2023-02-08T08:33:12.106Z,97699.84
2023-02-08T08:35:38.574Z,97677.53
2023-02-08T08:38:05.007Z,97687.13
2023-02-08T08:40:31.819Z,97689.16
2023-02-08T08:42:58.257Z,97688.03
2023-02-08T08:45:24.701Z,97688.63
2023-02-08T08:47:51.133Z,97691.59
2023-02-08T08:50:17.610Z,97694.78
2023-02-08T08:52:44.094Z,97689.00
2023-02-08T08:55:10.615Z,97681.69
2023-02-08T08:57:37.049Z,97678.75
2023-02-08T09:00:04.732Z,97688.56
2023-02-08T09:02:31.165Z,97697.84
2023-02-08T09:05:00.214Z,97690.31
2023-02-08T09:07:26.783Z,97691.84
2023-02-08T09:09:53.180Z,97684.91
2023-02-08T09:12:19.611Z,97695.91
2023-02-08T09:14:46.059Z,97685.84
2023-02-08T09:17:12.592Z,97684.78
2023-02-08T09:19:39.187Z,97684.25
2023-02-08T09:22:08.790Z,97680.06
2023-02-08T09:24:35.488Z,97700.50
2023-02-08T09:27:01.945Z,97683.38
2023-02-08T09:29:30.042Z,97674.03
2023-02-08T09:31:56.855Z,97684.28
2023-02-08T09:34:23.624Z,97694.06
2023-02-08T09:36:50.141Z,97684.69
2023-02-08T09:39:22.931Z,97698.91
2023-02-08T09:41:55.303Z,97700.34
2023-02-08T09:44:33.701Z,97688.25
2023-02-08T09:47:31.207Z,97692.25
2023-02-08T09:50:04.857Z,97697.97
2023-02-08T09:52:40.464Z,97701.06
2023-02-08T09:55:25.299Z,97709.03
2023-02-08T09:57:54.773Z,97699.97
2023-02-08T10:00:31.902Z,97695.91
2023-02-08T10:03:01.600Z,97692.44
2023-02-08T10:05:30.047Z,97691.47
2023-02-08T10:07:58.477Z,97693.41
2023-02-08T10:10:43.242Z,97686.34
2023-02-08T10:13:41.671Z,97687.72
2023-02-08T10:16:23.655Z,97694.00
2023-02-08T10:19:16.094Z,97687.03
2023-02-08T10:21:52.217Z,97692.38
2023-02-08T10:24:37.807Z,97682.72
2023-02-08T10:27:16.149Z,97683.34
2023-02-08T10:29:51.600Z,97689.38
2023-02-08T10:32:38.774Z,97668.66
2023-02-08T10:35:14.397Z,97679.53
2023-02-08T10:37:43.430Z,97680.16
2023-02-08T10:40:20.896Z,97683.06
2023-02-08T10:43:07.684Z,97674.13
2023-02-08T10:46:24.754Z,97674.28
2023-02-08T10:49:20.331Z,97659.41
2023-02-08T10:51:47.508Z,97679.84
2023-02-08T10:54:15.449Z,97651.00
2023-02-08T10:56:50.953Z,97654.22
2023-02-08T10:59:21.629Z,97649.84
2023-02-08T11:01:49.434Z,97654.22
2023-02-08T11:04:16.827Z,97630.84
2023-02-08T11:06:44.924Z,97639.59
2023-02-08T11:09:29.764Z,97629.09
2023-02-08T11:11:59.457Z,97632.81
2023-02-08T11:14:47.027Z,97643.31
2023-02-08T11:17:32.764Z,97628.09
2023-02-08T11:20:00.266Z,97629.53
2023-02-08T11:22:31.158Z,97640.38
2023-02-08T11:25:05.477Z,97645.53
2023-02-08T11:27:34.179Z,97638.41
2023-02-08T11:30:21.032Z,97623.97
2023-02-08T11:32:49.934Z,97635.00
2023-02-08T11:35:24.054Z,97631.47
2023-02-08T11:37:56.554Z,97624.38
2023-02-08T11:40:42.830Z,97621.16
2023-02-08T11:43:21.598Z,97617.16
2023-02-08T11:45:48.654Z,97604.53
2023-02-08T11:48:33.080Z,97626.44
2023-02-08T11:51:02.290Z,97624.16
2023-02-08T11:53:39.649Z,97622.13
2023-02-08T11:56:19.255Z,97617.44
2023-02-08T11:59:14.602Z,97613.75
2023-02-08T12:01:42.725Z,97609.59
2023-02-08T12:04:17.558Z,97598.94
2023-02-08T12:07:05.539Z,97600.66
2023-02-08T12:10:13.124Z,97588.03
2023-02-08T12:12:49.370Z,97586.19
2023-02-08T12:15:57.037Z,97591.59
2023-02-08T12:18:50.310Z,97580.44
2023-02-08T12:21:25.134Z,97595.00
2023-02-08T12:24:35.954Z,97578.78
2023-02-08T12:27:19.265Z,97571.72
2023-02-08T12:29:55.810Z,97558.66
2023-02-08T12:32:37.378Z,97568.06
2023-02-08T12:35:33.108Z,97567.72
2023-02-08T12:38:46.013Z,97553.97
2023-02-08T12:41:51.562Z,97557.53
2023-02-08T12:44:36.398Z,97547.66
2023-02-08T12:47:37.187Z,97563.78
2023-02-08T12:50:42.306Z,97548.44
2023-02-08T12:53:26.019Z,97540.03
2023-02-08T12:55:55.235Z,97528.84
2023-02-08T12:58:38.730Z,97539.94
2023-02-08T13:01:17.895Z,97532.50
2023-02-08T13:04:15.316Z,97540.66
2023-02-08T13:06:44.826Z,97520.34
2023-02-08T13:09:35.773Z,97519.81
2023-02-08T13:12:31.631Z,97522.09
2023-02-08T13:15:11.924Z,97513.53
2023-02-08T13:17:51.987Z,97503.66
2023-02-08T13:20:31.017Z,97507.56
2023-02-08T13:23:03.614Z,97510.97
2023-02-08T13:25:34.271Z,97503.69
2023-02-08T13:28:02.849Z,97495.28
2023-02-08T13:30:30.039Z,97495.41
2023-02-08T13:32:57.704Z,97492.63
2023-02-08T13:35:28.340Z,97503.63
2023-02-08T13:38:04.336Z,97483.09
2023-02-08T13:40:37.643Z,97489.41
2023-02-08T13:43:33.968Z,97480.88
2023-02-08T13:46:02.423Z,97495.34
2023-02-08T13:48:43.168Z,97484.72
2023-02-08T13:51:32.239Z,97476.75
2023-02-08T13:53:58.687Z,97476.72
2023-02-08T13:56:37.351Z,97476.03
2023-02-08T13:59:05.888Z,97482.19
2023-02-08T14:01:36.196Z,97485.13
2023-02-08T14:04:08.707Z,97475.09
2023-02-08T14:06:44.157Z,97468.66
2023-02-08T14:09:44.004Z,97458.91
2023-02-08T14:12:50.243Z,97474.50
2023-02-08T14:15:16.647Z,97477.56
2023-02-08T14:17:49.607Z,97468.13
2023-02-08T14:20:29.563Z,97477.00
2023-02-08T14:23:00.086Z,97470.06
2023-02-08T14:25:38.339Z,97484.78
2023-02-08T14:28:05.797Z,97480.44
2023-02-08T14:30:36.066Z,97474.75
2023-02-08T14:33:08.533Z,97476.50
2023-02-08T14:35:39.188Z,97457.44
2023-02-08T14:38:24.104Z,97476.88
2023-02-08T14:41:01.182Z,97471.31
2023-02-08T14:43:39.209Z,97470.84
2023-02-08T14:46:37.301Z,97473.41
2023-02-08T14:49:37.411Z,97459.69
2023-02-08T14:52:10.722Z,97460.44
2023-02-08T14:54:46.825Z,97465.97
2023-02-08T14:57:35.732Z,97455.00
2023-02-08T15:00:07.120Z,97467.34
2023-02-08T15:02:35.891Z,97455.59
2023-02-08T15:05:09.737Z,97466.88
2023-02-08T15:07:50.014Z,97462.38
2023-02-08T15:10:18.736Z,97463.00
2023-02-08T15:12:50.714Z,97459.47
2023-02-08T15:15:24.724Z,97453.63
2023-02-08T15:17:53.351Z,97466.53
2023-02-08T15:20:31.728Z,97465.22
2023-02-08T15:23:19.332Z,97458.56
2023-02-08T15:26:01.815Z,97449.81
2023-02-08T15:28:31.669Z,97464.53
2023-02-08T15:31:09.727Z,97465.34
2023-02-08T15:33:42.465Z,97460.31
2023-02-08T15:36:21.131Z,97464.72
2023-02-08T15:38:48.211Z,97468.94
2023-02-08T15:41:24.577Z,97473.28
2023-02-08T15:43:51.152Z,97460.34
2023-02-08T15:46:22.316Z,97470.97
2023-02-08T15:49:15.228Z,97461.16
2023-02-08T15:51:42.984Z,97441.13
2023-02-08T15:54:16.811Z,97444.34
2023-02-08T15:56:49.860Z,97451.16
2023-02-08T15:59:22.918Z,97450.25
2023-02-08T16:01:50.300Z,97465.09
2023-02-08T16:04:16.975Z,97462.72
2023-02-08T16:06:56.620Z,97470.91
2023-02-08T16:09:27.450Z,97468.38
2023-02-08T16:11:58.061Z,97459.91
2023-02-08T16:14:29.014Z,97474.19
2023-02-08T16:16:57.912Z,97464.34
2023-02-08T16:19:30.669Z,97463.56
2023-02-08T16:22:20.836Z,97471.34
2023-02-08T16:24:47.736Z,97454.19
2023-02-08T16:27:26.387Z,97470.06
2023-02-08T16:29:53.693Z,97457.44
2023-02-08T16:32:33.289Z,97467.97
2023-02-08T16:35:01.291Z,97463.91
2023-02-08T16:37:35.005Z,97438.66
2023-02-08T16:40:04.393Z,97440.31
2023-02-08T16:42:39.676Z,97455.84
2023-02-08T16:45:13.743Z,97458.44
2023-02-08T16:47:52.590Z,97473.78
2023-02-08T16:50:24.543Z,97466.34
2023-02-08T16:52:55.258Z,97468.16
2023-02-08T16:55:25.185Z,97476.41
2023-02-08T16:57:54.018Z,97468.31
2023-02-08T17:00:24.076Z,97466.50
2023-02-08T17:02:51.379Z,97461.31
2023-02-08T17:05:19.245Z,97481.44
2023-02-08T17:07:46.135Z,97484.66
2023-02-08T17:10:28.329Z,97477.72
2023-02-08T17:13:09.956Z,97484.81
2023-02-08T17:15:43.500Z,97452.16
2023-02-08T17:18:12.426Z,97442.63
2023-02-08T17:20:38.924Z,97478.34
2023-02-08T17:23:05.961Z,97483.69
2023-02-08T17:25:34.104Z,97483.53
2023-02-08T17:28:06.819Z,97465.59
2023-02-08T17:30:36.501Z,97480.78
2023-02-08T17:33:11.471Z,97475.63
2023-02-08T17:35:38.248Z,97447.50
2023-02-08T17:38:05.667Z,97447.34
2023-02-08T17:40:35.197Z,97466.25
2023-02-08T17:43:02.718Z,97471.72
2023-02-08T17:45:29.610Z,97465.28
2023-02-08T17:47:59.998Z,97452.97
2023-02-08T17:50:26.613Z,97458.50
2023-02-08T17:52:53.102Z,97458.00
2023-02-08T17:55:19.607Z,97445.56
2023-02-08T17:57:46.688Z,97424.22
2023-02-08T18:00:18.896Z,97459.00
2023-02-08T18:02:47.395Z,97455.25
2023-02-08T18:05:15.223Z,97468.50
2023-02-08T18:07:41.929Z,97454.44
2023-02-08T18:10:11.391Z,97458.31
2023-02-08T18:12:38.107Z,97454.94
2023-02-08T18:15:07.850Z,97454.59
2023-02-08T18:17:34.676Z,97436.50
2023-02-08T18:20:01.567Z,97427.78
2023-02-08T18:22:28.534Z,97450.72
2023-02-08T18:24:55.316Z,97435.38
2023-02-08T18:27:25.069Z,97421.78
2023-02-08T18:29:51.584Z,97439.91
2023-02-08T18:32:20.226Z,97443.63
2023-02-08T18:34:46.767Z,97449.59
2023-02-08T18:37:13.165Z,97430.34
2023-02-08T18:39:39.645Z,97429.41
2023-02-08T18:42:06.499Z,97451.69
2023-02-08T18:44:36.685Z,97426.97
2023-02-08T18:47:03.826Z,97433.59
2023-02-08T18:49:30.450Z,97454.44
2023-02-08T18:51:57.068Z,97453.63
2023-02-08T18:54:23.577Z,97428.88
2023-02-08T18:56:53.969Z,97448.63
2023-02-08T18:59:20.449Z,97430.69
2023-02-08T19:01:46.938Z,97427.47
2023-02-08T19:04:13.366Z,97428.59
2023-02-08T19:06:39.830Z,97419.03
2023-02-08T19:09:07.531Z,97431.34
2023-02-08T19:11:36.585Z,97420.00
2023-02-08T19:14:06.256Z,97438.09
2023-02-08T19:16:34.719Z,97435.50
2023-02-08T19:19:01.797Z,97422.59
2023-02-08T19:21:29.274Z,97436.59
2023-02-08T19:23:59.797Z,97415.09
2023-02-08T19:26:29.129Z,97419.81
2023-02-08T19:28:59.128Z,97431.44
2023-02-08T19:31:27.903Z,97432.25
2023-02-08T19:33:58.593Z,97418.34
2023-02-08T19:36:31.674Z,97404.13
2023-02-08T19:38:59.437Z,97398.31
2023-02-08T19:41:30.834Z,97422.88
2023-02-08T19:43:57.250Z,97389.41
2023-02-08T19:46:26.562Z,97408.34
2023-02-08T19:48:56.082Z,97414.00
2023-02-08T19:51:22.687Z,97411.41
2023-02-08T19:53:49.318Z,97411.91
2023-02-08T19:56:17.288Z,97398.28
2023-02-08T19:58:44.367Z,97420.09
2023-02-08T20:01:19.533Z,97416.69
2023-02-08T20:03:47.391Z,97410.19
2023-02-08T20:06:18.323Z,97410.84
2023-02-08T20:08:45.351Z,97398.56
2023-02-08T20:11:33.791Z,97405.44
2023-02-08T20:14:01.219Z,97411.41
2023-02-08T20:16:31.562Z,97411.41
2023-02-08T20:18:58.701Z,97411.41
2023-02-08T20:21:25.116Z,97415.97
2023-02-08T20:23:52.216Z,97420.69
2023-02-08T20:26:27.219Z,97421.16
2023-02-08T20:28:58.555Z,97420.16
2023-02-08T20:31:28.487Z,97411.78
2023-02-08T20:33:59.616Z,97397.34
2023-02-08T20:36:28.530Z,97415.56
2023-02-08T20:38:56.782Z,97411.81
2023-02-08T20:41:25.455Z,97418.94
2023-02-08T20:43:53.154Z,97384.47
2023-02-08T20:46:24.952Z,97416.34
2023-02-08T20:48:52.890Z,97427.63
2023-02-08T20:51:21.655Z,97393.38
2023-02-08T20:53:49.584Z,97426.84
2023-02-08T20:56:19.484Z,97429.25
2023-02-08T20:58:46.126Z,97425.03
2023-02-08T21:01:15.896Z,97428.22
2023-02-08T21:03:42.940Z,97420.97
2023-02-08T21:06:15.864Z,97399.28
2023-02-08T21:08:42.938Z,97427.75
2023-02-08T21:11:10.201Z,97397.50
2023-02-08T21:13:37.145Z,97412.38
2023-02-08T21:16:08.279Z,97420.16
2023-02-08T21:18:35.048Z,97401.69
2023-02-08T21:21:01.752Z,97405.25
2023-02-08T21:23:28.672Z,97395.38
2023-02-08T21:25:55.158Z,97385.16
2023-02-08T21:28:21.660Z,97409.97
2023-02-08T21:31:04.408Z,97424.03
2023-02-08T21:33:31.112Z,97401.53
2023-02-08T21:36:05.228Z,97392.66
2023-02-08T21:38:31.814Z,97403.75
2023-02-08T21:40:58.317Z,97388.81
2023-02-08T21:43:24.915Z,97398.59
2023-02-08T21:45:51.354Z,97397.81
2023-02-08T21:48:17.789Z,97393.25
2023-02-08T21:51:02.945Z,97395.31
2023-02-08T21:53:52.304Z,97395.78
2023-02-08T21:56:18.890Z,97397.22
2023-02-08T21:58:45.284Z,97392.03
2023-02-08T22:01:11.793Z,97370.31
2023-02-08T22:03:38.326Z,97356.69
2023-02-08T22:06:23.412Z,97391.41
2023-02-08T22:08:49.910Z,97388.78
2023-02-08T22:11:16.378Z,97366.31
2023-02-08T22:13:43.870Z,97350.69
2023-02-08T22:16:11.077Z,97366.09
2023-02-08T22:18:41.227Z,97368.66
2023-02-08T22:21:08.388Z,97356.31
2023-02-08T22:23:34.905Z,97376.72
2023-02-08T22:26:07.349Z,97390.13
2023-02-08T22:28:33.940Z,97365.28
2023-02-08T22:31:01.562Z,97367.28
2023-02-08T22:33:28.852Z,97379.59
2023-02-08T22:35:55.957Z,97357.19
2023-02-08T22:38:23.501Z,97377.56
2023-02-08T22:40:50.168Z,97375.28
2023-02-08T22:43:16.993Z,97371.22
2023-02-08T22:45:43.519Z,97375.28
2023-02-08T22:48:10.503Z,97363.16
2023-02-08T22:50:38.087Z,97359.28
2023-02-08T22:53:04.516Z,97353.19
2023-02-08T22:55:30.976Z,97364.84
2023-02-08T22:57:57.429Z,97342.00
2023-02-08T23:00:23.979Z,97358.81
2023-02-08T23:02:50.438Z,97371.19
2023-02-08T23:05:16.889Z,97371.31
2023-02-08T23:07:43.402Z,97354.84
2023-02-08T23:10:10.801Z,97354.13
2023-02-08T23:12:37.240Z,97362.94
2023-02-08T23:15:04.650Z,97357.44
2023-02-08T23:17:31.062Z,97358.53
2023-02-08T23:19:57.505Z,97352.28
2023-02-08T23:22:23.959Z,97366.84
2023-02-08T23:24:50.364Z,97364.69
2023-02-08T23:27:16.828Z,97369.69
2023-02-08T23:29:43.218Z,97353.63
2023-02-08T23:32:09.729Z,97349.44
2023-02-08T23:34:36.235Z,97363.94
2023-02-08T23:37:02.664Z,97337.56
2023-02-08T23:39:29.072Z,97359.03
2023-02-08T23:41:56.086Z,97348.91
2023-02-08T23:44:23.462Z,97348.59
2023-02-08T23:46:49.978Z,97311.66
2023-02-08T23:49:16.505Z,97330.75
2023-02-08T23:51:42.946Z,97332.13
2023-02-08T23:54:09.350Z,97326.31
2023-02-08T23:56:36.051Z,97352.00
2023-02-08T23:59:02.549Z,97337.84
